sensor_id;sensor_type;location;lat;lon;timestamp;pressure;altitude;pressure_sealevel;temperature;humidity
59690;BME280;45557;50.298;18.930;2022-12-05T11:04:46;98547.64;;;5.71;77.83
59690;BME280;45557;50.298;18.930;2022-12-05T11:10:39;98549.88;;;5.74;76.97
59690;BME280;45557;50.298;18.930;2022-12-05T11:17:22;98552.69;;;5.67;76.19
59690;BME280;45557;50.298;18.930;2022-12-05T11:23:41;98554.49;;;5.66;76.13
59690;BME280;45557;50.298;18.930;2022-12-05T11:30:19;98553.16;;;5.71;76.13
59690;BME280;45557;50.298;18.930;2022-12-05T11:36:55;98553.33;;;5.80;76.05
59690;BME280;45557;50.298;18.930;2022-12-05T11:43:20;98550.27;;;5.81;76.14
59690;BME280;45557;50.298;18.930;2022-12-05T12:11:33;98543.13;;;6.29;74.92
59690;BME280;45557;50.298;18.930;2022-12-05T13:14:57;98522.73;;;7.02;71.35
59690;BME280;45557;50.298;18.930;2022-12-05T13:21:35;98515.92;;;6.85;71.44
59690;BME280;45557;50.298;18.930;2022-12-05T13:28:22;98512.98;;;6.79;72.07
59690;BME280;45557;50.298;18.930;2022-12-05T13:41:47;98516.22;;;6.70;72.50
59690;BME280;45557;50.298;18.930;2022-12-05T13:48:43;98521.50;;;6.78;72.57
59690;BME280;45557;50.298;18.930;2022-12-05T13:55:39;98514.99;;;6.81;72.81
59690;BME280;45557;50.298;18.930;2022-12-05T14:56:50;98531.68;;;6.88;72.04
59690;BME280;45557;50.298;18.930;2022-12-05T15:16:17;98522.08;;;6.98;72.32
59690;BME280;45557;50.298;18.930;2022-12-05T15:22:59;98521.23;;;6.91;72.22
59690;BME280;45557;50.298;18.930;2022-12-05T15:35:14;98518.38;;;6.85;72.50
59690;BME280;45557;50.298;18.930;2022-12-05T15:41:42;98517.35;;;6.84;72.60
59690;BME280;45557;50.298;18.930;2022-12-05T15:48:30;98512.60;;;6.89;72.50
59690;BME280;45557;50.298;18.930;2022-12-05T15:54:52;98509.13;;;6.90;72.58
59690;BME280;45557;50.298;18.930;2022-12-05T16:01:39;98514.09;;;6.82;72.69
59690;BME280;45557;50.298;18.930;2022-12-05T16:08:52;98515.02;;;6.68;72.56
59690;BME280;45557;50.298;18.930;2022-12-05T16:48:01;98508.46;;;6.73;73.33
59690;BME280;45557;50.298;18.930;2022-12-05T16:54:45;98502.16;;;6.83;73.38
59690;BME280;45557;50.298;18.930;2022-12-05T17:13:56;98515.63;;;6.69;73.65
59690;BME280;45557;50.298;18.930;2022-12-05T18:00:33;98525.98;;;7.39;78.99
59690;BME280;45557;50.298;18.930;2022-12-05T18:07:44;98524.61;;;8.41;79.64
59690;BME280;45557;50.298;18.930;2022-12-05T18:27:01;98520.64;;;7.86;71.74
59690;BME280;45557;50.298;18.930;2022-12-05T18:33:43;98517.26;;;7.56;71.91
59690;BME280;45557;50.298;18.930;2022-12-05T18:40:26;98515.39;;;7.23;72.03
59690;BME280;45557;50.298;18.930;2022-12-05T18:47:07;98513.82;;;6.97;72.83
59690;BME280;45557;50.298;18.930;2022-12-05T18:53:49;98516.30;;;6.84;72.83
59690;BME280;45557;50.298;18.930;2022-12-05T19:00:32;98513.64;;;6.64;73.04
59690;BME280;45557;50.298;18.930;2022-12-05T19:07:14;98509.91;;;6.47;73.92
59690;BME280;45557;50.298;18.930;2022-12-05T19:13:58;98506.20;;;6.37;74.36
59690;BME280;45557;50.298;18.930;2022-12-05T19:20:39;98500.92;;;6.38;74.79
59690;BME280;45557;50.298;18.930;2022-12-05T19:27:22;98504.58;;;6.48;75.22
59690;BME280;45557;50.298;18.930;2022-12-05T19:34:04;98500.95;;;6.56;75.08
59690;BME280;45557;50.298;18.930;2022-12-05T19:40:53;98509.36;;;6.61;75.24
59690;BME280;45557;50.298;18.930;2022-12-05T19:47:28;98512.50;;;6.69;74.95
59690;BME280;45557;50.298;18.930;2022-12-05T19:54:10;98508.71;;;6.52;74.94
59690;BME280;45557;50.298;18.930;2022-12-05T20:00:51;98506.00;;;6.47;75.77
59690;BME280;45557;50.298;18.930;2022-12-05T20:07:34;98501.88;;;6.41;75.85
59690;BME280;45557;50.298;18.930;2022-12-05T20:14:17;98499.81;;;6.50;76.17
59690;BME280;45557;50.298;18.930;2022-12-05T20:20:59;98498.90;;;6.55;76.41
59690;BME280;45557;50.298;18.930;2022-12-05T20:27:40;98493.88;;;6.54;76.52
59690;BME280;45557;50.298;18.930;2022-12-05T20:34:36;98498.77;;;6.47;76.93
59690;BME280;45557;50.298;18.930;2022-12-05T20:41:36;98493.65;;;6.49;77.39
59690;BME280;45557;50.298;18.930;2022-12-05T20:48:24;98500.79;;;6.46;77.24
59690;BME280;45557;50.298;18.930;2022-12-05T20:55:08;98498.63;;;6.34;77.01
59690;BME280;45557;50.298;18.930;2022-12-05T21:02:07;98500.21;;;6.19;77.11
59690;BME280;45557;50.298;18.930;2022-12-05T21:08:48;98488.98;;;5.98;78.28
59690;BME280;45557;50.298;18.930;2022-12-05T21:15:32;98487.48;;;5.91;79.26
59690;BME280;45557;50.298;18.930;2022-12-05T21:22:15;98477.90;;;5.87;79.45
59690;BME280;45557;50.298;18.930;2022-12-05T21:28:56;98477.49;;;5.81;80.10
59690;BME280;45557;50.298;18.930;2022-12-05T21:35:39;98472.34;;;5.76;80.94
59690;BME280;45557;50.298;18.930;2022-12-05T21:42:24;98471.20;;;5.83;81.35
59690;BME280;45557;50.298;18.930;2022-12-05T21:49:16;98472.20;;;5.88;81.67
59690;BME280;45557;50.298;18.930;2022-12-05T21:56:08;98463.75;;;5.85;81.61
59690;BME280;45557;50.298;18.930;2022-12-05T22:02:53;98462.46;;;5.86;81.98
59690;BME280;45557;50.298;18.930;2022-12-05T22:16:22;98452.60;;;5.77;82.30
59690;BME280;45557;50.298;18.930;2022-12-05T22:23:33;98446.30;;;5.70;82.15
59690;BME280;45557;50.298;18.930;2022-12-05T22:30:24;98443.39;;;5.71;82.73
59690;BME280;45557;50.298;18.930;2022-12-05T22:37:19;98440.39;;;5.63;82.45
59690;BME280;45557;50.298;18.930;2022-12-05T22:44:03;98445.84;;;5.69;83.50
59690;BME280;45557;50.298;18.930;2022-12-05T22:50:48;98433.15;;;5.76;83.48
59690;BME280;45557;50.298;18.930;2022-12-05T22:57:29;98428.48;;;5.81;83.43
59690;BME280;45557;50.298;18.930;2022-12-05T23:04:13;98423.59;;;5.88;83.55
59690;BME280;45557;50.298;18.930;2022-12-05T23:10:56;98415.05;;;5.84;83.18
59690;BME280;45557;50.298;18.930;2022-12-05T23:17:42;98410.55;;;5.83;83.75
59690;BME280;45557;50.298;18.930;2022-12-05T23:24:26;98403.18;;;5.91;83.61
59690;BME280;45557;50.298;18.930;2022-12-05T23:38:53;98383.30;;;5.82;83.35
59690;BME280;45557;50.298;18.930;2022-12-05T23:45:36;98377.38;;;5.85;83.31
59690;BME280;45557;50.298;18.930;2022-12-05T23:52:18;98373.61;;;5.80;83.06
